sensor_id;sensor_type;location;lat;lon;timestamp;temperature;humidity
21445;DHT22;10883;51.946;20.140;2022-12-18T00:01:57;-2.40;99.90
21445;DHT22;10883;51.946;20.140;2022-12-18T00:04:25;-2.30;99.90
21445;DHT22;10883;51.946;20.140;2022-12-18T00:06:51;-2.40;99.90
21445;DHT22;10883;51.946;20.140;2022-12-18T00:09:17;-2.40;99.90
21445;DHT22;10883;51.946;20.140;2022-12-18T00:11:43;-2.50;99.90
21445;DHT22;10883;51.946;20.140;2022-12-18T00:14:11;-2.40;99.90
21445;DHT22;10883;51.946;20.140;2022-12-18T00:16:36;-2.50;99.90
21445;DHT22;10883;51.946;20.140;2022-12-18T00:19:03;-2.50;99.90
21445;DHT22;10883;51.946;20.140;2022-12-18T00:21:31;-2.50;99.90
21445;DHT22;10883;51.946;20.140;2022-12-18T00:23:58;-2.50;99.90
21445;DHT22;10883;51.946;20.140;2022-12-18T00:26:30;-2.60;99.90
21445;DHT22;10883;51.946;20.140;2022-12-18T00:28:59;-2.60;99.90
21445;DHT22;10883;51.946;20.140;2022-12-18T00:31:26;-2.60;99.90
21445;DHT22;10883;51.946;20.140;2022-12-18T00:33:54;-2.60;99.90
21445;DHT22;10883;51.946;20.140;2022-12-18T00:36:23;-2.60;99.90
21445;DHT22;10883;51.946;20.140;2022-12-18T00:38:49;-2.60;99.90
21445;DHT22;10883;51.946;20.140;2022-12-18T00:41:16;-2.60;99.90
21445;DHT22;10883;51.946;20.140;2022-12-18T00:44:04;-2.60;99.90
21445;DHT22;10883;51.946;20.140;2022-12-18T00:46:30;-2.60;99.90
21445;DHT22;10883;51.946;20.140;2022-12-18T00:48:56;-2.70;99.90
21445;DHT22;10883;51.946;20.140;2022-12-18T00:51:22;-2.70;99.90
21445;DHT22;10883;51.946;20.140;2022-12-18T00:53:47;-2.70;99.90
21445;DHT22;10883;51.946;20.140;2022-12-18T00:56:13;-2.80;99.90
21445;DHT22;10883;51.946;20.140;2022-12-18T00:58:39;-2.80;99.90
21445;DHT22;10883;51.946;20.140;2022-12-18T01:01:05;-2.80;99.90
21445;DHT22;10883;51.946;20.140;2022-12-18T01:03:31;-2.80;99.90
21445;DHT22;10883;51.946;20.140;2022-12-18T01:05:57;-2.80;99.90
21445;DHT22;10883;51.946;20.140;2022-12-18T01:08:23;-2.80;99.90
21445;DHT22;10883;51.946;20.140;2022-12-18T01:10:49;-2.80;99.90
21445;DHT22;10883;51.946;20.140;2022-12-18T01:13:15;-2.80;99.90
21445;DHT22;10883;51.946;20.140;2022-12-18T01:15:48;-2.90;99.90
21445;DHT22;10883;51.946;20.140;2022-12-18T01:18:14;-2.90;99.90
21445;DHT22;10883;51.946;20.140;2022-12-18T01:20:40;-3.00;99.90
21445;DHT22;10883;51.946;20.140;2022-12-18T01:23:06;-2.90;99.90
21445;DHT22;10883;51.946;20.140;2022-12-18T01:25:32;-3.00;99.90
21445;DHT22;10883;51.946;20.140;2022-12-18T01:27:57;-2.90;99.90
21445;DHT22;10883;51.946;20.140;2022-12-18T01:30:23;-3.00;99.90
21445;DHT22;10883;51.946;20.140;2022-12-18T01:32:49;-2.90;99.90
21445;DHT22;10883;51.946;20.140;2022-12-18T01:35:15;-2.90;99.90
21445;DHT22;10883;51.946;20.140;2022-12-18T01:37:40;-2.90;99.90
21445;DHT22;10883;51.946;20.140;2022-12-18T01:40:07;-2.90;99.90
21445;DHT22;10883;51.946;20.140;2022-12-18T01:42:33;-3.00;99.90
21445;DHT22;10883;51.946;20.140;2022-12-18T01:48:12;-2.90;99.90
21445;DHT22;10883;51.946;20.140;2022-12-18T01:50:42;-2.90;99.90
21445;DHT22;10883;51.946;20.140;2022-12-18T01:53:17;-2.90;99.90
21445;DHT22;10883;51.946;20.140;2022-12-18T01:55:47;-2.90;99.90
21445;DHT22;10883;51.946;20.140;2022-12-18T01:58:14;-2.90;99.90
21445;DHT22;10883;51.946;20.140;2022-12-18T02:00:40;-2.90;99.90
21445;DHT22;10883;51.946;20.140;2022-12-18T02:03:06;-2.90;99.90
21445;DHT22;10883;51.946;20.140;2022-12-18T02:27:46;-2.90;99.90
21445;DHT22;10883;51.946;20.140;2022-12-18T02:30:13;-3.00;99.90
21445;DHT22;10883;51.946;20.140;2022-12-18T02:32:46;-3.00;99.90
21445;DHT22;10883;51.946;20.140;2022-12-18T02:35:19;-2.90;99.90
21445;DHT22;10883;51.946;20.140;2022-12-18T02:37:47;-2.90;99.90
21445;DHT22;10883;51.946;20.140;2022-12-18T02:40:14;-3.00;99.90
21445;DHT22;10883;51.946;20.140;2022-12-18T02:42:41;-3.00;99.90
21445;DHT22;10883;51.946;20.140;2022-12-18T02:45:07;-3.00;99.90
21445;DHT22;10883;51.946;20.140;2022-12-18T02:47:36;-3.10;99.90
21445;DHT22;10883;51.946;20.140;2022-12-18T02:53:17;-3.00;99.90
21445;DHT22;10883;51.946;20.140;2022-12-18T02:58:46;-3.00;99.90
21445;DHT22;10883;51.946;20.140;2022-12-18T03:06:25;-3.00;99.90
21445;DHT22;10883;51.946;20.140;2022-12-18T03:08:58;-3.00;99.90
21445;DHT22;10883;51.946;20.140;2022-12-18T03:11:24;-2.90;99.90
21445;DHT22;10883;51.946;20.140;2022-12-18T03:14:11;-2.90;99.90
21445;DHT22;10883;51.946;20.140;2022-12-18T03:16:39;-3.00;99.90
21445;DHT22;10883;51.946;20.140;2022-12-18T03:19:14;-3.00;99.90
21445;DHT22;10883;51.946;20.140;2022-12-18T03:21:45;-2.90;99.90
21445;DHT22;10883;51.946;20.140;2022-12-18T03:24:12;-2.90;99.90
21445;DHT22;10883;51.946;20.140;2022-12-18T03:26:43;-2.90;99.90
21445;DHT22;10883;51.946;20.140;2022-12-18T03:29:14;-2.90;99.90
21445;DHT22;10883;51.946;20.140;2022-12-18T03:31:47;-3.00;99.90
21445;DHT22;10883;51.946;20.140;2022-12-18T03:34:19;-2.90;99.90
21445;DHT22;10883;51.946;20.140;2022-12-18T03:36:47;-2.90;99.90
21445;DHT22;10883;51.946;20.140;2022-12-18T03:39:13;-2.90;99.90
21445;DHT22;10883;51.946;20.140;2022-12-18T03:42:15;-2.90;99.90
21445;DHT22;10883;51.946;20.140;2022-12-18T03:45:07;-2.90;99.90
21445;DHT22;10883;51.946;20.140;2022-12-18T03:50:13;-2.80;99.90
21445;DHT22;10883;51.946;20.140;2022-12-18T03:52:58;-2.80;99.90
21445;DHT22;10883;51.946;20.140;2022-12-18T03:55:28;-2.80;99.90
21445;DHT22;10883;51.946;20.140;2022-12-18T03:57:56;-2.80;99.90
21445;DHT22;10883;51.946;20.140;2022-12-18T04:00:23;-2.80;99.90
21445;DHT22;10883;51.946;20.140;2022-12-18T04:02:53;-2.80;99.90
21445;DHT22;10883;51.946;20.140;2022-12-18T04:05:20;-2.80;99.90
21445;DHT22;10883;51.946;20.140;2022-12-18T04:07:48;-2.80;99.90
21445;DHT22;10883;51.946;20.140;2022-12-18T04:10:16;-2.90;99.90
21445;DHT22;10883;51.946;20.140;2022-12-18T04:12:42;-2.90;99.90
21445;DHT22;10883;51.946;20.140;2022-12-18T04:15:09;-2.90;99.90
21445;DHT22;10883;51.946;20.140;2022-12-18T04:17:36;-2.80;99.90
21445;DHT22;10883;51.946;20.140;2022-12-18T04:20:02;-2.80;99.90
21445;DHT22;10883;51.946;20.140;2022-12-18T04:22:28;-2.80;99.90
21445;DHT22;10883;51.946;20.140;2022-12-18T04:24:54;-2.70;99.90
21445;DHT22;10883;51.946;20.140;2022-12-18T04:27:20;-2.70;99.90
21445;DHT22;10883;51.946;20.140;2022-12-18T04:29:46;-2.80;99.90
21445;DHT22;10883;51.946;20.140;2022-12-18T04:32:12;-2.80;99.90
21445;DHT22;10883;51.946;20.140;2022-12-18T04:34:37;-2.80;99.90
21445;DHT22;10883;51.946;20.140;2022-12-18T04:37:03;-2.80;99.90
21445;DHT22;10883;51.946;20.140;2022-12-18T04:39:29;-2.80;99.90
21445;DHT22;10883;51.946;20.140;2022-12-18T04:41:55;-2.80;99.90
21445;DHT22;10883;51.946;20.140;2022-12-18T04:44:21;-2.80;99.90
21445;DHT22;10883;51.946;20.140;2022-12-18T04:46:47;-2.80;99.90
21445;DHT22;10883;51.946;20.140;2022-12-18T04:49:12;-2.80;99.90
21445;DHT22;10883;51.946;20.140;2022-12-18T04:51:38;-2.80;99.90
21445;DHT22;10883;51.946;20.140;2022-12-18T04:54:04;-2.80;99.90
21445;DHT22;10883;51.946;20.140;2022-12-18T04:56:31;-2.80;99.90
21445;DHT22;10883;51.946;20.140;2022-12-18T04:58:57;-2.80;99.90
21445;DHT22;10883;51.946;20.140;2022-12-18T05:01:23;-2.80;99.90
21445;DHT22;10883;51.946;20.140;2022-12-18T05:03:51;-2.80;99.90
21445;DHT22;10883;51.946;20.140;2022-12-18T05:06:16;-2.80;99.90
21445;DHT22;10883;51.946;20.140;2022-12-18T05:08:42;-2.80;99.90
21445;DHT22;10883;51.946;20.140;2022-12-18T05:11:11;-2.80;99.90
21445;DHT22;10883;51.946;20.140;2022-12-18T05:13:37;-2.90;99.90
21445;DHT22;10883;51.946;20.140;2022-12-18T05:16:04;-2.90;99.90
21445;DHT22;10883;51.946;20.140;2022-12-18T05:18:30;-2.90;99.90
21445;DHT22;10883;51.946;20.140;2022-12-18T05:20:56;-2.90;99.90
21445;DHT22;10883;51.946;20.140;2022-12-18T05:23:23;-2.90;99.90
21445;DHT22;10883;51.946;20.140;2022-12-18T05:25:54;-2.90;99.90
21445;DHT22;10883;51.946;20.140;2022-12-18T05:28:21;-2.90;99.90
21445;DHT22;10883;51.946;20.140;2022-12-18T05:30:57;-3.00;99.90
21445;DHT22;10883;51.946;20.140;2022-12-18T05:33:24;-3.00;99.90
21445;DHT22;10883;51.946;20.140;2022-12-18T05:35:54;-2.90;99.90
21445;DHT22;10883;51.946;20.140;2022-12-18T05:38:22;-2.90;99.90
21445;DHT22;10883;51.946;20.140;2022-12-18T05:40:51;-2.80;99.90
21445;DHT22;10883;51.946;20.140;2022-12-18T05:43:19;-2.80;99.90
21445;DHT22;10883;51.946;20.140;2022-12-18T05:45:47;-2.90;99.90
21445;DHT22;10883;51.946;20.140;2022-12-18T05:48:14;-2.90;99.90
21445;DHT22;10883;51.946;20.140;2022-12-18T05:50:41;-2.90;99.90
21445;DHT22;10883;51.946;20.140;2022-12-18T05:53:08;-2.80;99.90
21445;DHT22;10883;51.946;20.140;2022-12-18T05:55:38;-2.80;99.90
21445;DHT22;10883;51.946;20.140;2022-12-18T05:58:05;-2.80;99.90
21445;DHT22;10883;51.946;20.140;2022-12-18T06:00:33;-2.80;99.90
21445;DHT22;10883;51.946;20.140;2022-12-18T06:03:00;-2.90;99.90
21445;DHT22;10883;51.946;20.140;2022-12-18T06:05:26;-2.90;99.90
21445;DHT22;10883;51.946;20.140;2022-12-18T06:07:52;-2.90;99.90
21445;DHT22;10883;51.946;20.140;2022-12-18T06:10:18;-2.90;99.90
21445;DHT22;10883;51.946;20.140;2022-12-18T06:12:44;-2.90;99.90
21445;DHT22;10883;51.946;20.140;2022-12-18T06:15:10;-3.00;99.90
21445;DHT22;10883;51.946;20.140;2022-12-18T06:17:36;-2.90;99.90
21445;DHT22;10883;51.946;20.140;2022-12-18T06:20:02;-2.90;99.90
21445;DHT22;10883;51.946;20.140;2022-12-18T06:22:28;-2.90;99.90
21445;DHT22;10883;51.946;20.140;2022-12-18T06:24:55;-2.90;99.90
21445;DHT22;10883;51.946;20.140;2022-12-18T06:27:22;-3.00;99.90
21445;DHT22;10883;51.946;20.140;2022-12-18T06:29:47;-3.00;99.90
21445;DHT22;10883;51.946;20.140;2022-12-18T06:32:13;-2.90;99.90
21445;DHT22;10883;51.946;20.140;2022-12-18T06:34:39;-2.90;99.90
21445;DHT22;10883;51.946;20.140;2022-12-18T06:37:04;-2.90;99.90
21445;DHT22;10883;51.946;20.140;2022-12-18T06:39:30;-2.90;99.90
21445;DHT22;10883;51.946;20.140;2022-12-18T06:41:56;-2.90;99.90
21445;DHT22;10883;51.946;20.140;2022-12-18T06:44:22;-2.90;99.90
21445;DHT22;10883;51.946;20.140;2022-12-18T06:46:47;-2.90;99.90
21445;DHT22;10883;51.946;20.140;2022-12-18T06:49:14;-2.90;99.90
21445;DHT22;10883;51.946;20.140;2022-12-18T06:51:41;-2.80;99.90
21445;DHT22;10883;51.946;20.140;2022-12-18T06:54:07;-2.80;99.90
21445;DHT22;10883;51.946;20.140;2022-12-18T06:56:33;-2.80;99.90
21445;DHT22;10883;51.946;20.140;2022-12-18T06:58:58;-2.70;99.90
21445;DHT22;10883;51.946;20.140;2022-12-18T07:01:24;-2.70;99.90
21445;DHT22;10883;51.946;20.140;2022-12-18T07:03:55;-2.70;99.90
21445;DHT22;10883;51.946;20.140;2022-12-18T07:06:23;-2.60;99.90
21445;DHT22;10883;51.946;20.140;2022-12-18T07:08:50;-2.50;99.90
21445;DHT22;10883;51.946;20.140;2022-12-18T07:11:17;-2.60;99.90
21445;DHT22;10883;51.946;20.140;2022-12-18T07:13:43;-2.60;99.90
21445;DHT22;10883;51.946;20.140;2022-12-18T07:16:15;-2.60;99.90
21445;DHT22;10883;51.946;20.140;2022-12-18T07:18:41;-2.60;99.90
21445;DHT22;10883;51.946;20.140;2022-12-18T07:21:13;-2.50;99.90
21445;DHT22;10883;51.946;20.140;2022-12-18T07:23:39;-2.50;99.90
21445;DHT22;10883;51.946;20.140;2022-12-18T07:26:11;-2.50;99.90
21445;DHT22;10883;51.946;20.140;2022-12-18T07:28:39;-2.50;99.90
21445;DHT22;10883;51.946;20.140;2022-12-18T07:31:16;-2.40;99.90
21445;DHT22;10883;51.946;20.140;2022-12-18T07:33:44;-2.40;99.90
21445;DHT22;10883;51.946;20.140;2022-12-18T07:36:10;-2.30;99.90
21445;DHT22;10883;51.946;20.140;2022-12-18T07:38:37;-2.30;99.90
21445;DHT22;10883;51.946;20.140;2022-12-18T07:41:08;-2.20;99.90
21445;DHT22;10883;51.946;20.140;2022-12-18T07:43:34;-2.30;99.90
21445;DHT22;10883;51.946;20.140;2022-12-18T07:46:01;-2.10;99.90
21445;DHT22;10883;51.946;20.140;2022-12-18T07:48:28;-2.10;99.90
21445;DHT22;10883;51.946;20.140;2022-12-18T07:50:58;-2.10;99.90
21445;DHT22;10883;51.946;20.140;2022-12-18T07:53:24;-2.10;99.90
21445;DHT22;10883;51.946;20.140;2022-12-18T07:55:55;-2.20;99.90
21445;DHT22;10883;51.946;20.140;2022-12-18T07:58:22;-2.30;99.90
21445;DHT22;10883;51.946;20.140;2022-12-18T08:00:49;-2.20;99.90
21445;DHT22;10883;51.946;20.140;2022-12-18T08:03:15;-2.30;99.90
21445;DHT22;10883;51.946;20.140;2022-12-18T08:05:41;-2.30;99.90
21445;DHT22;10883;51.946;20.140;2022-12-18T08:08:07;-2.10;99.90
21445;DHT22;10883;51.946;20.140;2022-12-18T08:10:33;-2.10;99.90
21445;DHT22;10883;51.946;20.140;2022-12-18T08:12:58;-2.10;99.90
21445;DHT22;10883;51.946;20.140;2022-12-18T08:15:24;-2.10;99.90
21445;DHT22;10883;51.946;20.140;2022-12-18T08:17:50;-2.00;99.90
21445;DHT22;10883;51.946;20.140;2022-12-18T08:20:16;-2.00;99.90
21445;DHT22;10883;51.946;20.140;2022-12-18T08:22:44;-1.90;99.90
21445;DHT22;10883;51.946;20.140;2022-12-18T08:25:09;-1.80;99.90
21445;DHT22;10883;51.946;20.140;2022-12-18T08:27:35;-1.70;99.90
21445;DHT22;10883;51.946;20.140;2022-12-18T08:30:02;-1.70;99.90
21445;DHT22;10883;51.946;20.140;2022-12-18T08:32:29;-1.90;99.90
21445;DHT22;10883;51.946;20.140;2022-12-18T08:34:55;-2.00;99.90
21445;DHT22;10883;51.946;20.140;2022-12-18T08:37:20;-2.00;99.90
21445;DHT22;10883;51.946;20.140;2022-12-18T08:39:46;-2.00;99.90
21445;DHT22;10883;51.946;20.140;2022-12-18T08:42:12;-1.80;99.90
21445;DHT22;10883;51.946;20.140;2022-12-18T08:44:56;-1.80;99.90
21445;DHT22;10883;51.946;20.140;2022-12-18T08:47:22;-1.60;99.90
21445;DHT22;10883;51.946;20.140;2022-12-18T08:49:48;-1.40;99.90
21445;DHT22;10883;51.946;20.140;2022-12-18T08:52:14;-1.20;99.90
21445;DHT22;10883;51.946;20.140;2022-12-18T08:54:40;-1.20;99.90
21445;DHT22;10883;51.946;20.140;2022-12-18T08:57:07;-1.10;99.90
21445;DHT22;10883;51.946;20.140;2022-12-18T08:59:33;-1.00;99.90
21445;DHT22;10883;51.946;20.140;2022-12-18T09:02:00;-0.90;99.90
21445;DHT22;10883;51.946;20.140;2022-12-18T09:04:27;-0.80;99.90
21445;DHT22;10883;51.946;20.140;2022-12-18T09:06:53;-0.80;99.90
21445;DHT22;10883;51.946;20.140;2022-12-18T09:09:22;-0.80;99.90
21445;DHT22;10883;51.946;20.140;2022-12-18T09:11:49;-0.70;99.90
21445;DHT22;10883;51.946;20.140;2022-12-18T09:14:15;-0.90;99.90
21445;DHT22;10883;51.946;20.140;2022-12-18T09:16:41;-0.90;99.90
21445;DHT22;10883;51.946;20.140;2022-12-18T09:19:07;-0.80;99.90
21445;DHT22;10883;51.946;20.140;2022-12-18T09:21:37;-0.80;99.90
21445;DHT22;10883;51.946;20.140;2022-12-18T09:24:05;-0.90;99.90
21445;DHT22;10883;51.946;20.140;2022-12-18T09:26:31;-1.00;99.90
21445;DHT22;10883;51.946;20.140;2022-12-18T09:28:57;-1.00;99.90
21445;DHT22;10883;51.946;20.140;2022-12-18T09:31:24;-0.90;99.90
21445;DHT22;10883;51.946;20.140;2022-12-18T09:33:50;-0.90;99.90
21445;DHT22;10883;51.946;20.140;2022-12-18T09:36:17;-0.90;99.90
21445;DHT22;10883;51.946;20.140;2022-12-18T09:38:44;-0.90;99.90
21445;DHT22;10883;51.946;20.140;2022-12-18T09:44:05;-0.80;99.90
21445;DHT22;10883;51.946;20.140;2022-12-18T09:46:39;-0.70;99.90
21445;DHT22;10883;51.946;20.140;2022-12-18T09:49:12;-0.70;99.90
21445;DHT22;10883;51.946;20.140;2022-12-18T09:51:45;-0.80;99.90
21445;DHT22;10883;51.946;20.140;2022-12-18T09:54:42;-0.80;99.90
21445;DHT22;10883;51.946;20.140;2022-12-18T09:57:20;-0.80;99.90
21445;DHT22;10883;51.946;20.140;2022-12-18T10:02:36;-0.50;99.90
21445;DHT22;10883;51.946;20.140;2022-12-18T10:05:13;-0.40;99.90
21445;DHT22;10883;51.946;20.140;2022-12-18T10:07:59;-0.40;99.90
21445;DHT22;10883;51.946;20.140;2022-12-18T10:10:34;-0.50;99.90
21445;DHT22;10883;51.946;20.140;2022-12-18T10:13:07;-0.80;99.90
21445;DHT22;10883;51.946;20.140;2022-12-18T10:16:00;-1.10;99.90
21445;DHT22;10883;51.946;20.140;2022-12-18T10:19:05;-1.10;99.90
21445;DHT22;10883;51.946;20.140;2022-12-18T10:26:52;-1.60;99.90
21445;DHT22;10883;51.946;20.140;2022-12-18T10:29:19;-1.90;99.90
21445;DHT22;10883;51.946;20.140;2022-12-18T10:31:45;-2.00;99.90
21445;DHT22;10883;51.946;20.140;2022-12-18T10:34:14;-2.00;99.90
21445;DHT22;10883;51.946;20.140;2022-12-18T10:36:40;-1.90;99.90
21445;DHT22;10883;51.946;20.140;2022-12-18T10:39:24;-1.70;99.90
21445;DHT22;10883;51.946;20.140;2022-12-18T10:41:56;-1.30;99.90
21445;DHT22;10883;51.946;20.140;2022-12-18T10:44:34;-1.30;99.90
21445;DHT22;10883;51.946;20.140;2022-12-18T10:47:09;-1.30;99.90
21445;DHT22;10883;51.946;20.140;2022-12-18T10:49:37;-1.30;99.90
21445;DHT22;10883;51.946;20.140;2022-12-18T10:52:20;-1.10;99.90
21445;DHT22;10883;51.946;20.140;2022-12-18T10:57:33;-1.20;99.90
21445;DHT22;10883;51.946;20.140;2022-12-18T11:00:18;-1.70;99.90
21445;DHT22;10883;51.946;20.140;2022-12-18T11:02:45;-1.70;99.90
21445;DHT22;10883;51.946;20.140;2022-12-18T11:07:51;-2.00;99.90
21445;DHT22;10883;51.946;20.140;2022-12-18T11:10:36;-2.00;99.90
21445;DHT22;10883;51.946;20.140;2022-12-18T11:13:15;-2.10;99.90
21445;DHT22;10883;51.946;20.140;2022-12-18T11:15:42;-2.00;99.90
21445;DHT22;10883;51.946;20.140;2022-12-18T11:20:54;-1.80;99.90
21445;DHT22;10883;51.946;20.140;2022-12-18T11:23:21;-1.90;99.90
21445;DHT22;10883;51.946;20.140;2022-12-18T11:25:55;-2.00;99.90
21445;DHT22;10883;51.946;20.140;2022-12-18T11:28:51;-2.00;99.90
21445;DHT22;10883;51.946;20.140;2022-12-18T11:31:24;-1.90;99.90
21445;DHT22;10883;51.946;20.140;2022-12-18T11:34:46;-1.80;99.90
21445;DHT22;10883;51.946;20.140;2022-12-18T11:36:47;-2.00;99.90
21445;DHT22;10883;51.946;20.140;2022-12-18T11:42:13;-2.50;99.90
21445;DHT22;10883;51.946;20.140;2022-12-18T11:44:58;-2.50;99.90
21445;DHT22;10883;51.946;20.140;2022-12-18T11:47:44;-2.70;99.90
21445;DHT22;10883;51.946;20.140;2022-12-18T11:50:16;-2.80;99.90
21445;DHT22;10883;51.946;20.140;2022-12-18T11:52:43;-3.00;99.90
21445;DHT22;10883;51.946;20.140;2022-12-18T11:55:25;-3.10;99.90
21445;DHT22;10883;51.946;20.140;2022-12-18T11:58:43;-3.10;99.90
21445;DHT22;10883;51.946;20.140;2022-12-18T12:09:32;-2.40;99.90
21445;DHT22;10883;51.946;20.140;2022-12-18T12:12:23;-2.40;99.90
21445;DHT22;10883;51.946;20.140;2022-12-18T12:15:17;-2.20;99.90
21445;DHT22;10883;51.946;20.140;2022-12-18T12:17:53;-2.30;99.90
21445;DHT22;10883;51.946;20.140;2022-12-18T12:25:55;-2.50;99.90
21445;DHT22;10883;51.946;20.140;2022-12-18T12:39:01;-2.90;99.90
21445;DHT22;10883;51.946;20.140;2022-12-18T12:41:31;-3.00;99.90
21445;DHT22;10883;51.946;20.140;2022-12-18T12:44:29;-2.90;99.90
21445;DHT22;10883;51.946;20.140;2022-12-18T12:46:59;-2.70;99.90
21445;DHT22;10883;51.946;20.140;2022-12-18T12:49:29;-2.70;99.90
21445;DHT22;10883;51.946;20.140;2022-12-18T12:52:13;-2.90;99.90
21445;DHT22;10883;51.946;20.140;2022-12-18T12:54:41;-3.00;99.90
21445;DHT22;10883;51.946;20.140;2022-12-18T12:57:37;-3.10;99.90
21445;DHT22;10883;51.946;20.140;2022-12-18T13:00:17;-3.00;99.90
21445;DHT22;10883;51.946;20.140;2022-12-18T13:08:09;-2.80;99.90
21445;DHT22;10883;51.946;20.140;2022-12-18T13:13:08;-3.00;99.90
21445;DHT22;10883;51.946;20.140;2022-12-18T13:18:11;-2.80;99.90
21445;DHT22;10883;51.946;20.140;2022-12-18T13:20:44;-2.70;99.90
21445;DHT22;10883;51.946;20.140;2022-12-18T13:34:23;-3.30;99.90
21445;DHT22;10883;51.946;20.140;2022-12-18T13:36:49;-3.30;99.90
21445;DHT22;10883;51.946;20.140;2022-12-18T13:41:49;-3.40;99.90
21445;DHT22;10883;51.946;20.140;2022-12-18T13:44:36;-3.50;99.90
21445;DHT22;10883;51.946;20.140;2022-12-18T13:47:03;-3.60;99.90
21445;DHT22;10883;51.946;20.140;2022-12-18T13:49:43;-3.60;99.90
21445;DHT22;10883;51.946;20.140;2022-12-18T13:52:21;-3.80;99.90
21445;DHT22;10883;51.946;20.140;2022-12-18T13:54:53;-4.00;99.90
21445;DHT22;10883;51.946;20.140;2022-12-18T13:57:29;-4.00;99.90
21445;DHT22;10883;51.946;20.140;2022-12-18T13:59:56;-4.20;99.90
21445;DHT22;10883;51.946;20.140;2022-12-18T14:02:27;-4.30;99.90
21445;DHT22;10883;51.946;20.140;2022-12-18T14:04:54;-4.20;99.90
21445;DHT22;10883;51.946;20.140;2022-12-18T14:07:25;-4.20;99.90
21445;DHT22;10883;51.946;20.140;2022-12-18T14:09:55;-4.20;99.90
21445;DHT22;10883;51.946;20.140;2022-12-18T14:12:31;-4.20;99.90
21445;DHT22;10883;51.946;20.140;2022-12-18T14:15:41;-4.30;99.90
21445;DHT22;10883;51.946;20.140;2022-12-18T14:18:28;-4.40;99.90
21445;DHT22;10883;51.946;20.140;2022-12-18T14:21:00;-4.40;99.90
21445;DHT22;10883;51.946;20.140;2022-12-18T14:23:34;-4.40;99.90
21445;DHT22;10883;51.946;20.140;2022-12-18T14:26:02;-4.50;99.90
21445;DHT22;10883;51.946;20.140;2022-12-18T14:28:28;-4.50;99.90
21445;DHT22;10883;51.946;20.140;2022-12-18T14:30:55;-4.60;99.90
21445;DHT22;10883;51.946;20.140;2022-12-18T14:33:26;-4.60;99.90
21445;DHT22;10883;51.946;20.140;2022-12-18T14:36:01;-4.60;99.90
21445;DHT22;10883;51.946;20.140;2022-12-18T14:40:57;-4.60;99.90
21445;DHT22;10883;51.946;20.140;2022-12-18T14:43:24;-4.70;99.90
21445;DHT22;10883;51.946;20.140;2022-12-18T14:45:51;-4.70;99.90
21445;DHT22;10883;51.946;20.140;2022-12-18T14:51:15;-4.60;99.90
21445;DHT22;10883;51.946;20.140;2022-12-18T14:54:03;-4.60;99.90
21445;DHT22;10883;51.946;20.140;2022-12-18T14:56:34;-4.60;99.90
21445;DHT22;10883;51.946;20.140;2022-12-18T14:59:03;-4.60;99.90
21445;DHT22;10883;51.946;20.140;2022-12-18T15:01:35;-4.60;99.90
21445;DHT22;10883;51.946;20.140;2022-12-18T15:04:03;-4.60;99.90
21445;DHT22;10883;51.946;20.140;2022-12-18T15:06:35;-4.50;99.90
21445;DHT22;10883;51.946;20.140;2022-12-18T15:09:05;-4.50;99.90
21445;DHT22;10883;51.946;20.140;2022-12-18T15:11:46;-4.60;99.90
21445;DHT22;10883;51.946;20.140;2022-12-18T15:14:23;-4.60;99.90
21445;DHT22;10883;51.946;20.140;2022-12-18T15:16:55;-4.60;99.90
21445;DHT22;10883;51.946;20.140;2022-12-18T15:19:32;-4.60;99.90
21445;DHT22;10883;51.946;20.140;2022-12-18T15:22:00;-4.60;99.90
21445;DHT22;10883;51.946;20.140;2022-12-18T15:24:29;-4.60;99.90
21445;DHT22;10883;51.946;20.140;2022-12-18T15:26:56;-4.60;99.90
21445;DHT22;10883;51.946;20.140;2022-12-18T15:29:22;-4.60;99.90
21445;DHT22;10883;51.946;20.140;2022-12-18T15:32:02;-4.70;99.90
21445;DHT22;10883;51.946;20.140;2022-12-18T15:34:29;-4.70;99.90
21445;DHT22;10883;51.946;20.140;2022-12-18T15:36:55;-4.80;99.90
21445;DHT22;10883;51.946;20.140;2022-12-18T15:39:20;-4.80;99.90
21445;DHT22;10883;51.946;20.140;2022-12-18T15:41:46;-4.90;99.90
21445;DHT22;10883;51.946;20.140;2022-12-18T15:44:31;-4.90;99.90
21445;DHT22;10883;51.946;20.140;2022-12-18T15:46:57;-5.00;99.90
21445;DHT22;10883;51.946;20.140;2022-12-18T15:49:23;-5.10;99.90
21445;DHT22;10883;51.946;20.140;2022-12-18T15:51:52;-5.00;99.90
21445;DHT22;10883;51.946;20.140;2022-12-18T15:54:19;-5.10;99.90
21445;DHT22;10883;51.946;20.140;2022-12-18T15:57:09;-5.10;99.90
21445;DHT22;10883;51.946;20.140;2022-12-18T15:59:55;-5.10;99.90
21445;DHT22;10883;51.946;20.140;2022-12-18T16:02:24;-5.10;99.90
21445;DHT22;10883;51.946;20.140;2022-12-18T16:04:51;-5.20;99.90
21445;DHT22;10883;51.946;20.140;2022-12-18T16:07:17;-5.20;99.90
21445;DHT22;10883;51.946;20.140;2022-12-18T16:09:43;-5.20;99.90
21445;DHT22;10883;51.946;20.140;2022-12-18T16:12:18;-5.30;99.90
21445;DHT22;10883;51.946;20.140;2022-12-18T16:14:45;-5.30;99.90
21445;DHT22;10883;51.946;20.140;2022-12-18T16:17:12;-5.30;99.90
21445;DHT22;10883;51.946;20.140;2022-12-18T16:19:38;-5.40;99.90
21445;DHT22;10883;51.946;20.140;2022-12-18T16:22:04;-5.40;99.90
21445;DHT22;10883;51.946;20.140;2022-12-18T16:24:32;-5.40;99.90
21445;DHT22;10883;51.946;20.140;2022-12-18T16:26:59;-5.50;99.90
21445;DHT22;10883;51.946;20.140;2022-12-18T16:29:26;-5.50;99.90
21445;DHT22;10883;51.946;20.140;2022-12-18T16:31:57;-5.40;99.90
21445;DHT22;10883;51.946;20.140;2022-12-18T16:34:31;-5.50;99.90
21445;DHT22;10883;51.946;20.140;2022-12-18T16:37:01;-5.50;99.90
21445;DHT22;10883;51.946;20.140;2022-12-18T16:39:27;-5.50;99.90
21445;DHT22;10883;51.946;20.140;2022-12-18T16:41:53;-5.60;99.90
21445;DHT22;10883;51.946;20.140;2022-12-18T16:44:19;-5.60;99.90
21445;DHT22;10883;51.946;20.140;2022-12-18T16:46:46;-5.70;99.90
21445;DHT22;10883;51.946;20.140;2022-12-18T16:49:13;-5.70;99.90
21445;DHT22;10883;51.946;20.140;2022-12-18T16:51:39;-5.70;99.90
21445;DHT22;10883;51.946;20.140;2022-12-18T16:54:05;-5.80;99.90
21445;DHT22;10883;51.946;20.140;2022-12-18T16:56:31;-5.80;99.90
21445;DHT22;10883;51.946;20.140;2022-12-18T16:58:59;-5.80;99.90
21445;DHT22;10883;51.946;20.140;2022-12-18T17:01:26;-5.90;99.90
21445;DHT22;10883;51.946;20.140;2022-12-18T17:03:54;-5.90;99.90
21445;DHT22;10883;51.946;20.140;2022-12-18T17:06:21;-5.90;99.90
21445;DHT22;10883;51.946;20.140;2022-12-18T17:08:52;-5.90;99.90
21445;DHT22;10883;51.946;20.140;2022-12-18T17:11:19;-5.90;99.90
21445;DHT22;10883;51.946;20.140;2022-12-18T17:13:45;-5.80;99.90
21445;DHT22;10883;51.946;20.140;2022-12-18T17:16:10;-5.70;99.90
21445;DHT22;10883;51.946;20.140;2022-12-18T17:18:36;-5.80;99.90
21445;DHT22;10883;51.946;20.140;2022-12-18T17:21:05;-5.80;99.90
21445;DHT22;10883;51.946;20.140;2022-12-18T17:23:34;-5.90;99.90
21445;DHT22;10883;51.946;20.140;2022-12-18T17:25:59;-5.80;99.90
21445;DHT22;10883;51.946;20.140;2022-12-18T17:28:26;-5.90;99.90